createdAt,value
2022-11-26T00:02:29.988Z,74.14
2022-11-26T00:04:58.921Z,74.20
2022-11-26T00:07:29.645Z,73.53
2022-11-26T00:09:58.653Z,74.28
2022-11-26T00:12:28.599Z,74.08
2022-11-26T00:14:55.758Z,74.13
2022-11-26T00:17:23.325Z,74.12
2022-11-26T00:19:50.539Z,74.37
2022-11-26T00:22:32.504Z,72.58
2022-11-26T00:24:59.715Z,74.20
2022-11-26T00:27:28.412Z,74.08
2022-11-26T00:29:55.691Z,74.23
2022-11-26T00:32:25.371Z,74.20
2022-11-26T00:34:53.271Z,74.55
2022-11-26T00:37:35.949Z,73.54
2022-11-26T00:40:03.288Z,74.47
2022-11-26T00:42:30.411Z,74.28
2022-11-26T00:44:57.463Z,74.30
2022-11-26T00:47:24.584Z,74.39
2022-11-26T00:49:51.633Z,74.48
2022-11-26T00:52:33.787Z,73.34
2022-11-26T00:55:06.405Z,74.19
2022-11-26T00:57:33.623Z,74.82
2022-11-26T01:00:00.670Z,74.65
2022-11-26T01:02:27.928Z,74.71
2022-11-26T01:04:54.954Z,74.64
2022-11-26T01:07:22.108Z,74.68
2022-11-26T01:09:49.360Z,74.52
2022-11-26T01:12:16.401Z,74.56
2022-11-26T01:14:43.582Z,74.48
2022-11-26T01:17:12.053Z,74.41
2022-11-26T01:19:39.201Z,74.61
2022-11-26T01:22:06.262Z,74.64
2022-11-26T01:24:33.491Z,74.53
2022-11-26T01:27:00.571Z,74.27
2022-11-26T01:29:27.709Z,74.18
2022-11-26T01:31:54.859Z,74.27
2022-11-26T01:34:22.047Z,74.20
2022-11-26T01:36:49.113Z,74.25
2022-11-26T01:39:19.626Z,73.99
2022-11-26T01:42:07.283Z,72.95
2022-11-26T01:44:36.715Z,74.45
2022-11-26T01:47:21.517Z,72.94
2022-11-26T01:50:26.136Z,72.52
2022-11-26T01:52:59.913Z,74.10
2022-11-26T01:55:35.987Z,73.15
2022-11-26T01:58:05.711Z,73.99
2022-11-26T02:00:33.316Z,74.00
2022-11-26T02:03:01.329Z,73.97
2022-11-26T02:05:31.522Z,73.79
2022-11-26T02:07:59.185Z,73.78
2022-11-26T02:10:26.346Z,73.61
2022-11-26T02:12:53.504Z,73.44
2022-11-26T02:15:23.310Z,73.33
2022-11-26T02:18:03.870Z,72.28
2022-11-26T02:21:03.299Z,72.03
2022-11-26T02:24:04.098Z,71.84
2022-11-26T02:27:19.919Z,72.00
2022-11-26T02:30:05.453Z,72.08
2022-11-26T02:33:01.736Z,72.18
2022-11-26T02:35:41.745Z,73.67
2022-11-26T02:38:18.627Z,72.67
2022-11-26T02:40:45.727Z,73.82
2022-11-26T02:43:15.315Z,73.32
2022-11-26T02:46:05.173Z,72.31
2022-11-26T02:48:36.926Z,73.24
2022-11-26T02:51:10.014Z,73.57
2022-11-26T02:53:39.101Z,73.85
2022-11-26T02:56:14.257Z,72.96
2022-11-26T02:58:41.892Z,73.68
2022-11-26T03:01:35.300Z,72.96
2022-11-26T03:04:09.381Z,72.94
2022-11-26T03:06:38.436Z,73.67
2022-11-26T03:09:06.816Z,73.70
2022-11-26T03:11:34.393Z,73.77
2022-11-26T03:14:01.649Z,73.87
2022-11-26T03:16:28.788Z,73.97
2022-11-26T03:18:56.112Z,73.93
2022-11-26T03:21:23.300Z,73.80
2022-11-26T03:23:50.365Z,73.54
2022-11-26T03:26:17.649Z,73.60
2022-11-26T03:28:44.800Z,73.67
2022-11-26T03:31:11.873Z,73.51
2022-11-26T03:33:39.027Z,73.41
2022-11-26T03:36:06.460Z,73.46
2022-11-26T03:38:33.545Z,73.49
2022-11-26T03:41:04.902Z,73.18
2022-11-26T03:43:32.154Z,73.42
2022-11-26T03:45:59.325Z,73.62
2022-11-26T03:48:26.435Z,73.56
2022-11-26T03:50:53.488Z,73.58
2022-11-26T03:53:20.559Z,73.24
2022-11-26T03:55:47.893Z,73.35
2022-11-26T03:58:14.909Z,73.31
2022-11-26T04:00:42.053Z,73.48
2022-11-26T04:03:09.297Z,73.45
2022-11-26T04:05:36.413Z,73.50
2022-11-26T04:08:03.565Z,73.74
2022-11-26T04:10:30.750Z,73.73
2022-11-26T04:12:58.070Z,73.91
2022-11-26T04:15:25.189Z,74.18
2022-11-26T04:17:52.240Z,74.31
2022-11-26T04:20:19.406Z,74.10
2022-11-26T04:22:46.504Z,74.13
2022-11-26T04:25:13.691Z,74.30
2022-11-26T04:27:40.822Z,73.96
2022-11-26T04:30:09.238Z,74.14
2022-11-26T04:32:36.327Z,74.20
2022-11-26T04:35:03.651Z,74.10
2022-11-26T04:37:34.172Z,74.11
2022-11-26T04:40:01.457Z,74.09
2022-11-26T04:42:28.438Z,74.13
2022-11-26T04:44:55.553Z,74.08
2022-11-26T04:47:22.631Z,74.20
2022-11-26T04:49:49.827Z,74.20
2022-11-26T04:52:16.905Z,73.92
2022-11-26T04:54:44.012Z,74.09
2022-11-26T04:57:11.229Z,74.04
2022-11-26T04:59:38.444Z,74.24
2022-11-26T05:02:05.638Z,73.96
2022-11-26T05:04:32.753Z,74.06
2022-11-26T05:06:59.920Z,74.01
2022-11-26T05:09:27.296Z,73.75
2022-11-26T05:11:54.379Z,73.98
2022-11-26T05:14:21.512Z,73.80
2022-11-26T05:16:48.707Z,73.79
2022-11-26T05:19:16.366Z,73.59
2022-11-26T05:21:43.460Z,73.56
2022-11-26T05:24:10.505Z,73.67
2022-11-26T05:26:37.691Z,73.46
2022-11-26T05:29:04.850Z,73.63
2022-11-26T05:31:32.004Z,73.75
2022-11-26T05:33:59.165Z,73.94
2022-11-26T05:36:26.212Z,74.00
2022-11-26T05:38:53.481Z,73.95
2022-11-26T05:41:20.667Z,74.10
2022-11-26T05:43:47.814Z,74.07
2022-11-26T05:46:17.541Z,73.87
2022-11-26T05:48:44.976Z,74.26
2022-11-26T05:51:12.031Z,74.19
2022-11-26T05:53:39.141Z,74.32
2022-11-26T05:56:06.362Z,74.21
2022-11-26T05:58:33.422Z,74.44
2022-11-26T06:01:00.571Z,74.34
2022-11-26T06:03:27.800Z,74.47
2022-11-26T06:05:55.093Z,74.44
2022-11-26T06:08:22.134Z,74.53
2022-11-26T06:10:49.302Z,74.40
2022-11-26T06:13:16.786Z,74.39
2022-11-26T06:15:43.872Z,74.32
2022-11-26T06:18:11.057Z,74.20
2022-11-26T06:20:38.695Z,74.06
2022-11-26T06:23:05.762Z,74.20
2022-11-26T06:25:32.882Z,74.15
2022-11-26T06:28:00.036Z,74.18
2022-11-26T06:30:27.340Z,74.21
2022-11-26T06:32:54.442Z,74.11
2022-11-26T06:35:21.606Z,74.02
2022-11-26T06:37:48.770Z,74.21
2022-11-26T06:40:19.215Z,73.89
2022-11-26T06:42:53.432Z,72.84
2022-11-26T06:45:22.385Z,74.26
2022-11-26T06:47:51.629Z,74.14
2022-11-26T06:50:21.122Z,74.20
2022-11-26T06:52:54.670Z,72.97
2022-11-26T06:55:22.275Z,74.31
2022-11-26T06:57:50.933Z,74.08
2022-11-26T07:00:18.330Z,74.43
2022-11-26T07:02:45.602Z,74.49
2022-11-26T07:05:12.756Z,74.40
2022-11-26T07:07:40.135Z,74.36
2022-11-26T07:10:08.162Z,74.29
2022-11-26T07:12:35.200Z,74.33
2022-11-26T07:15:02.253Z,74.07
2022-11-26T07:17:29.640Z,74.25
2022-11-26T07:19:56.647Z,74.23
2022-11-26T07:22:23.736Z,74.13
2022-11-26T07:24:50.932Z,74.20
2022-11-26T07:27:18.050Z,73.99
2022-11-26T07:29:45.181Z,74.22
2022-11-26T07:32:12.423Z,74.39
2022-11-26T07:34:39.608Z,74.45
2022-11-26T07:37:06.849Z,74.17
2022-11-26T07:39:33.899Z,74.35
2022-11-26T07:42:01.037Z,74.15
2022-11-26T07:44:28.093Z,74.16
2022-11-26T07:46:55.249Z,74.41
2022-11-26T07:49:22.314Z,74.45
2022-11-26T07:51:49.499Z,74.34
2022-11-26T07:54:16.513Z,74.63
2022-11-26T07:56:43.573Z,74.76
2022-11-26T07:59:11.154Z,74.79
2022-11-26T08:01:38.293Z,74.80
2022-11-26T08:04:06.382Z,74.54
2022-11-26T08:06:34.210Z,74.78
2022-11-26T08:09:02.301Z,74.82
2022-11-26T08:11:32.352Z,74.66
2022-11-26T08:14:04.905Z,74.65
2022-11-26T08:16:32.629Z,74.76
2022-11-26T08:19:03.686Z,74.23
2022-11-26T08:21:30.983Z,74.42
2022-11-26T08:23:58.087Z,74.36
2022-11-26T08:26:33.500Z,74.15
2022-11-26T08:29:01.190Z,73.94
2022-11-26T08:31:28.736Z,73.88
2022-11-26T08:33:58.081Z,73.78
2022-11-26T08:36:26.371Z,73.87
2022-11-26T08:38:53.490Z,74.11
2022-11-26T08:41:21.066Z,74.36
2022-11-26T08:46:36.896Z,73.97
2022-11-26T08:49:04.787Z,73.86
2022-11-26T08:51:31.870Z,73.71
2022-11-26T08:54:02.225Z,73.73
2022-11-26T08:56:29.444Z,73.53
2022-11-26T08:58:56.506Z,73.92
2022-11-26T09:01:26.048Z,73.91
2022-11-26T09:03:56.273Z,73.85
2022-11-26T09:06:25.415Z,73.92
2022-11-26T09:08:52.561Z,74.27
2022-11-26T09:11:19.857Z,74.25
2022-11-26T09:13:46.870Z,74.11
2022-11-26T09:16:14.032Z,74.27
2022-11-26T09:18:41.186Z,74.26
2022-11-26T09:21:08.239Z,73.91
2022-11-26T09:23:35.383Z,73.92
2022-11-26T09:26:02.704Z,73.79
2022-11-26T09:28:29.817Z,73.86
2022-11-26T09:30:58.090Z,73.81
2022-11-26T09:33:25.783Z,73.72
2022-11-26T09:35:53.341Z,73.93
2022-11-26T09:38:20.451Z,73.49
2022-11-26T09:40:56.870Z,72.83
2022-11-26T09:43:36.031Z,71.77
2022-11-26T09:46:03.952Z,73.81
2022-11-26T09:48:33.762Z,73.90
2022-11-26T09:51:08.498Z,73.04
2022-11-26T09:53:40.533Z,73.54
2022-11-26T09:56:13.447Z,73.20
2022-11-26T09:58:48.531Z,73.48
2022-11-26T10:01:20.948Z,73.00
2022-11-26T10:03:48.318Z,74.25
2022-11-26T10:06:30.350Z,72.18
2022-11-26T10:09:05.877Z,70.03
2022-11-26T10:11:37.704Z,74.23
2022-11-26T10:14:23.529Z,71.39
2022-11-26T10:17:17.392Z,71.74
2022-11-26T10:20:15.564Z,71.62
2022-11-26T10:22:56.871Z,71.75
2022-11-26T10:25:29.391Z,72.84
2022-11-26T10:27:59.177Z,73.33
2022-11-26T10:30:29.143Z,73.77
2022-11-26T10:33:00.737Z,72.65
2022-11-26T10:35:29.516Z,73.45
2022-11-26T10:37:57.317Z,73.80
2022-11-26T10:40:27.153Z,73.15
2022-11-26T10:43:06.248Z,70.47
2022-11-26T10:45:37.751Z,69.47
2022-11-26T10:48:27.697Z,70.19
2022-11-26T10:50:57.750Z,71.46
2022-11-26T10:53:26.676Z,72.56
2022-11-26T10:55:57.416Z,72.39
2022-11-26T10:58:27.937Z,72.76
2022-11-26T11:00:59.126Z,72.65
2022-11-26T11:06:27.934Z,72.98
2022-11-26T11:08:55.435Z,73.77
2022-11-26T11:11:24.218Z,73.87
2022-11-26T11:13:51.827Z,73.67
2022-11-26T11:16:39.136Z,70.69
2022-11-26T11:19:21.657Z,70.21
2022-11-26T11:21:49.060Z,72.96
2022-11-26T11:24:23.687Z,70.00
2022-11-26T11:26:52.637Z,72.53
2022-11-26T11:29:33.135Z,70.03
2022-11-26T11:32:03.962Z,71.76
2022-11-26T11:34:40.637Z,69.38
2022-11-26T11:37:16.151Z,69.70
2022-11-26T11:39:43.756Z,71.20
2022-11-26T11:42:25.830Z,69.03
2022-11-26T11:44:52.981Z,71.12
2022-11-26T11:47:36.407Z,66.04
2022-11-26T11:50:38.210Z,68.42
2022-11-26T11:53:17.546Z,69.36
2022-11-26T11:55:58.092Z,70.81
2022-11-26T11:58:45.316Z,68.79
2022-11-26T12:01:48.690Z,68.62
2022-11-26T12:04:43.886Z,69.41
2022-11-26T12:07:20.090Z,71.35
2022-11-26T12:09:59.139Z,70.89
2022-11-26T12:12:31.569Z,71.14
2022-11-26T12:15:04.635Z,69.75
2022-11-26T12:17:34.659Z,70.74
2022-11-26T12:20:14.496Z,69.31
2022-11-26T12:22:46.277Z,69.33
2022-11-26T12:25:35.160Z,68.96
2022-11-26T12:28:14.228Z,69.79
2022-11-26T12:30:53.762Z,68.96
2022-11-26T12:33:27.135Z,68.72
2022-11-26T12:35:59.260Z,70.00
2022-11-26T12:38:52.346Z,69.75
2022-11-26T12:41:24.750Z,70.36
2022-11-26T12:44:04.359Z,70.22
2022-11-26T12:46:42.630Z,70.15
2022-11-26T12:49:28.488Z,70.06
2022-11-26T12:52:29.531Z,71.74
2022-11-26T12:55:05.580Z,69.66
2022-11-26T12:57:45.944Z,69.22
2022-11-26T13:00:25.301Z,70.20
2022-11-26T13:02:53.945Z,67.99
2022-11-26T13:05:29.777Z,66.58
2022-11-26T13:08:18.072Z,66.72
2022-11-26T13:11:11.306Z,66.74
2022-11-26T13:13:53.429Z,65.54
2022-11-26T13:16:35.393Z,66.01
2022-11-26T13:19:10.207Z,65.12
2022-11-26T13:21:49.872Z,65.83
2022-11-26T13:24:26.585Z,66.81
2022-11-26T13:27:20.339Z,65.24
2022-11-26T13:29:57.910Z,67.87
2022-11-26T13:32:48.129Z,66.29
2022-11-26T13:35:29.461Z,66.81
2022-11-26T13:38:13.784Z,66.13
2022-11-26T13:41:13.043Z,66.03
2022-11-26T13:44:18.307Z,65.57
2022-11-26T13:47:08.844Z,65.77
2022-11-26T13:49:55.004Z,66.04
2022-11-26T13:52:35.664Z,66.38
2022-11-26T13:55:11.920Z,66.56
2022-11-26T13:57:43.880Z,66.81
2022-11-26T14:00:14.414Z,67.02
2022-11-26T14:02:43.605Z,65.96
2022-11-26T14:05:14.419Z,66.31
2022-11-26T14:07:43.500Z,66.41
2022-11-26T14:10:35.331Z,66.40
2022-11-26T14:13:02.396Z,67.12
2022-11-26T14:15:41.768Z,65.66
2022-11-26T14:18:13.689Z,66.21
2022-11-26T14:20:59.232Z,65.93
2022-11-26T14:23:40.972Z,66.16
2022-11-26T14:26:19.088Z,66.34
2022-11-26T14:28:46.239Z,68.02
2022-11-26T14:31:15.585Z,67.86
2022-11-26T14:33:44.250Z,68.29
2022-11-26T14:36:21.392Z,66.80
2022-11-26T14:39:09.468Z,66.92
2022-11-26T14:41:42.535Z,67.49
2022-11-26T14:44:17.882Z,67.50
2022-11-26T14:46:48.328Z,68.56
2022-11-26T14:49:18.358Z,68.65
2022-11-26T14:51:47.901Z,69.02
2022-11-26T14:54:24.300Z,68.72
2022-11-26T14:56:51.401Z,69.44
2022-11-26T14:59:19.237Z,69.61
2022-11-26T15:01:46.627Z,69.63
2022-11-26T15:04:25.033Z,68.71
2022-11-26T15:06:52.229Z,69.28
2022-11-26T15:09:22.153Z,68.71
2022-11-26T15:12:11.171Z,67.85
2022-11-26T15:14:42.821Z,68.42
2022-11-26T15:17:15.801Z,67.65
2022-11-26T15:19:43.800Z,68.15
2022-11-26T15:22:34.263Z,67.10
2022-11-26T15:25:01.863Z,67.82
2022-11-26T15:27:36.106Z,67.32
2022-11-26T15:30:24.726Z,66.88
2022-11-26T15:33:10.093Z,67.07
2022-11-26T15:35:37.600Z,67.17
2022-11-26T15:38:14.400Z,66.96
2022-11-26T15:41:19.120Z,67.13
2022-11-26T15:43:50.273Z,67.42
2022-11-26T15:46:22.116Z,67.41
2022-11-26T15:48:53.746Z,67.54
2022-11-26T15:51:38.240Z,67.53
2022-11-26T15:54:38.394Z,67.73
2022-11-26T15:57:26.060Z,67.69
2022-11-26T15:59:55.156Z,67.99
2022-11-26T16:02:24.967Z,67.89
2022-11-26T16:04:57.360Z,67.93
2022-11-26T16:07:27.365Z,67.96
2022-11-26T16:10:16.338Z,67.79
2022-11-26T16:12:43.497Z,67.99
2022-11-26T16:15:25.289Z,68.05
2022-11-26T16:17:53.637Z,68.24
2022-11-26T16:20:24.082Z,68.02
2022-11-26T16:22:54.228Z,68.15
2022-11-26T16:25:21.590Z,67.90
2022-11-26T16:28:13.385Z,67.83
2022-11-26T16:30:42.977Z,68.14
2022-11-26T16:33:10.196Z,68.22
2022-11-26T16:35:46.138Z,68.34
2022-11-26T16:38:21.705Z,67.95
2022-11-26T16:40:49.721Z,68.23
2022-11-26T16:43:17.330Z,68.42
2022-11-26T16:45:44.601Z,68.45
2022-11-26T16:48:24.022Z,68.12
2022-11-26T16:50:55.531Z,68.69
2022-11-26T16:53:23.586Z,68.81
2022-11-26T16:55:53.027Z,68.63
2022-11-26T16:58:32.488Z,68.20
2022-11-26T17:00:59.844Z,68.64
2022-11-26T17:03:27.830Z,68.67
2022-11-26T17:05:56.467Z,68.33
2022-11-26T17:08:23.837Z,68.51
2022-11-26T17:10:50.959Z,68.48
2022-11-26T17:13:18.620Z,68.48
2022-11-26T17:15:46.148Z,68.46
2022-11-26T17:18:23.063Z,67.91
2022-11-26T17:20:51.207Z,68.55
2022-11-26T17:23:18.465Z,68.38
2022-11-26T17:25:48.476Z,68.27
2022-11-26T17:28:15.713Z,68.33
2022-11-26T17:30:44.649Z,68.38
2022-11-26T17:33:12.125Z,68.46
2022-11-26T17:35:39.290Z,68.56
2022-11-26T17:38:21.140Z,68.40
2022-11-26T17:40:48.413Z,68.76
2022-11-26T17:43:15.581Z,68.64
2022-11-26T17:45:42.982Z,68.88
2022-11-26T17:48:13.111Z,68.71
2022-11-26T17:50:40.903Z,68.89
2022-11-26T17:53:08.196Z,68.97
2022-11-26T17:55:35.519Z,68.95
2022-11-26T17:58:02.564Z,68.83
2022-11-26T18:00:29.878Z,68.87
2022-11-26T18:02:57.697Z,68.91
2022-11-26T18:05:24.932Z,68.87
2022-11-26T18:07:52.136Z,68.87
2022-11-26T18:10:21.510Z,68.87
2022-11-26T18:12:49.493Z,68.71
2022-11-26T18:15:19.516Z,68.87
2022-11-26T18:17:52.388Z,68.64
2022-11-26T18:20:22.940Z,68.91
2022-11-26T18:22:52.480Z,68.66
2022-11-26T18:25:19.622Z,68.97
2022-11-26T18:27:46.950Z,69.00
2022-11-26T18:30:15.154Z,68.94
2022-11-26T18:32:42.312Z,68.89
2022-11-26T18:35:10.166Z,68.70
2022-11-26T18:37:38.695Z,68.69
2022-11-26T18:40:11.904Z,68.49
2022-11-26T18:42:39.175Z,68.56
2022-11-26T18:45:08.368Z,68.52
2022-11-26T18:47:35.451Z,68.74
2022-11-26T18:50:02.545Z,68.59
2022-11-26T18:52:29.636Z,68.75
2022-11-26T18:54:56.821Z,68.68
2022-11-26T18:57:23.933Z,68.74
2022-11-26T18:59:51.425Z,68.46
2022-11-26T19:02:18.580Z,68.43
2022-11-26T19:04:45.928Z,68.26
2022-11-26T19:07:13.365Z,68.50
2022-11-26T19:09:40.768Z,68.51
2022-11-26T19:12:08.259Z,68.64
2022-11-26T19:14:35.300Z,68.53
2022-11-26T19:17:02.590Z,68.63
2022-11-26T19:19:29.659Z,68.54
2022-11-26T19:22:00.728Z,68.62
2022-11-26T19:24:29.603Z,68.31
2022-11-26T19:26:56.832Z,68.19
2022-11-26T19:29:24.067Z,68.34
2022-11-26T19:31:51.246Z,68.53
2022-11-26T19:34:18.403Z,68.71
2022-11-26T19:36:45.636Z,68.47
2022-11-26T19:39:12.656Z,68.71
2022-11-26T19:41:39.933Z,68.82
2022-11-26T19:44:07.150Z,68.77
2022-11-26T19:46:36.700Z,68.73
2022-11-26T19:49:04.085Z,68.77
2022-11-26T19:51:31.151Z,68.66
2022-11-26T19:53:58.709Z,68.67
2022-11-26T19:56:28.518Z,68.56
2022-11-26T19:58:56.100Z,68.58
2022-11-26T20:01:23.877Z,68.58
2022-11-26T20:03:51.350Z,68.35
2022-11-26T20:06:21.556Z,68.20
2022-11-26T20:08:49.797Z,68.28
2022-11-26T20:11:17.990Z,68.46
2022-11-26T20:13:47.219Z,68.42
2022-11-26T20:16:20.388Z,68.23
2022-11-26T20:18:48.187Z,68.58
2022-11-26T20:21:21.650Z,68.23
2022-11-26T20:23:50.278Z,68.61
2022-11-26T20:26:17.309Z,68.85
2022-11-26T20:28:44.918Z,68.59
2022-11-26T20:31:13.654Z,68.90
2022-11-26T20:33:41.549Z,68.84
2022-11-26T20:36:10.856Z,68.65
2022-11-26T20:38:37.923Z,68.82
2022-11-26T20:41:10.117Z,68.79
2022-11-26T20:43:37.997Z,68.93
2022-11-26T20:46:06.961Z,68.90
2022-11-26T20:48:35.602Z,69.17
2022-11-26T20:51:05.356Z,69.08
2022-11-26T20:53:34.441Z,69.53
2022-11-26T20:56:02.553Z,69.63
2022-11-26T20:58:29.582Z,69.04
2022-11-26T21:00:57.053Z,70.00
2022-11-26T21:03:26.032Z,70.29
2022-11-26T21:05:53.233Z,70.76
2022-11-26T21:08:22.761Z,70.92
2022-11-26T21:10:50.493Z,71.48
2022-11-26T21:13:18.829Z,71.60
2022-11-26T21:15:46.617Z,71.91
2022-11-26T21:18:14.254Z,72.17
2022-11-26T21:20:42.830Z,72.39
2022-11-26T21:23:10.928Z,72.77
2022-11-26T21:25:39.984Z,72.65
2022-11-26T21:28:07.955Z,72.86
2022-11-26T21:30:35.533Z,71.19
2022-11-26T21:33:08.790Z,72.25
2022-11-26T21:35:37.201Z,72.05
2022-11-26T21:38:05.673Z,71.60
2022-11-26T21:40:33.036Z,71.45
2022-11-26T21:43:00.258Z,71.18
2022-11-26T21:45:27.404Z,70.74
2022-11-26T21:47:54.776Z,70.61
2022-11-26T21:50:21.858Z,70.15
2022-11-26T21:52:49.105Z,69.97
2022-11-26T21:55:16.208Z,69.75
2022-11-26T21:57:43.212Z,69.59
2022-11-26T22:00:10.748Z,69.35
2022-11-26T22:02:38.043Z,69.20
2022-11-26T22:05:05.342Z,69.35
2022-11-26T22:07:32.524Z,69.32
2022-11-26T22:09:59.671Z,69.46
2022-11-26T22:12:26.989Z,69.55
2022-11-26T22:14:54.106Z,69.37
2022-11-26T22:17:21.170Z,69.38
2022-11-26T22:19:48.330Z,69.41
2022-11-26T22:22:15.409Z,69.34
2022-11-26T22:24:42.603Z,69.44
2022-11-26T22:27:10.255Z,69.35
2022-11-26T22:29:37.997Z,69.14
2022-11-26T22:32:05.205Z,69.08
2022-11-26T22:34:32.285Z,68.94
2022-11-26T22:36:59.464Z,69.08
2022-11-26T22:39:26.544Z,68.97
2022-11-26T22:41:53.674Z,69.07
2022-11-26T22:44:20.700Z,69.04
2022-11-26T22:46:47.987Z,68.89
2022-11-26T22:49:16.622Z,68.83
2022-11-26T22:51:43.869Z,68.89
2022-11-26T22:54:13.500Z,68.82
2022-11-26T22:56:40.981Z,68.84
2022-11-26T22:59:10.558Z,68.72
2022-11-26T23:01:38.368Z,68.79
2022-11-26T23:04:08.468Z,68.87
2022-11-26T23:06:36.559Z,69.15
2022-11-26T23:09:06.450Z,69.26
2022-11-26T23:11:37.060Z,69.14
2022-11-26T23:14:05.306Z,69.51
2022-11-26T23:16:32.555Z,69.87
2022-11-26T23:18:59.692Z,70.09
2022-11-26T23:21:32.577Z,69.66
2022-11-26T23:24:00.144Z,70.37
2022-11-26T23:26:32.060Z,69.84
2022-11-26T23:29:01.026Z,70.20
2022-11-26T23:31:37.562Z,69.92
2022-11-26T23:34:05.287Z,70.32
2022-11-26T23:36:33.437Z,70.38
2022-11-26T23:39:02.127Z,70.24
2022-11-26T23:41:29.693Z,70.31
2022-11-26T23:43:57.129Z,70.38
2022-11-26T23:46:27.244Z,70.37
2022-11-26T23:48:54.714Z,70.38
2022-11-26T23:51:24.740Z,70.10
2022-11-26T23:53:52.905Z,70.21
2022-11-26T23:56:29.129Z,69.76
2022-11-26T23:58:59.390Z,70.06
